Time;durP1;ratioP1;P1;durP2;ratioP2;P2;SDS_P1;SDS_P2;PMS_P1;PMS_P2;Temp;Humidity;BMP_temperature;BMP_pressure;BME280_temperature;BME280_humidity;BME280_pressure;Samples;Min_cycle;Max_cycle;Signal;HPM_P1;HPM_P2
2021/05/07 00:00:29;;;;;;;5.95;1.42;;;;;;;;;;4954047;28;20054;-59
2021/05/07 00:02:55;;;;;;;9.52;2.05;;;;;;;;;;4944136;28;20043;-58
2021/05/07 00:05:21;;;;;;;8.02;1.75;;;;;;;;;;4943065;28;20090;-59
2021/05/07 00:07:47;;;;;;;5.55;1.42;;;;;;;;;;4944177;28;20039;-59
2021/05/07 00:10:13;;;;;;;9.57;1.58;;;;;;;;;;4938844;28;20051;-57
2021/05/07 00:12:40;;;;;;;14.77;2.00;;;;;;;;;;4946386;28;20031;-58
2021/05/07 00:15:06;;;;;;;6.45;1.40;;;;;;;;;;4952333;28;20078;-58
2021/05/07 00:17:32;;;;;;;9.95;1.90;;;;;;;;;;4948927;28;20054;-58
2021/05/07 00:19:58;;;;;;;6.90;1.25;;;;;;;;;;4961189;28;20690;-58
2021/05/07 00:22:23;;;;;;;7.32;1.50;;;;;;;;;;4950145;28;20054;-57
2021/05/07 00:24:49;;;;;;;11.23;1.20;;;;;;;;;;4949992;28;20039;-58
2021/05/07 00:27:17;;;;;;;10.02;1.60;;;;;;;;;;4946230;28;20578;-57
2021/05/07 00:29:44;;;;;;;7.80;1.38;;;;;;;;;;4946697;28;20090;-58
2021/05/07 00:32:09;;;;;;;7.43;1.13;;;;;;;;;;4951834;28;20055;-57
2021/05/07 00:34:35;;;;;;;14.27;1.33;;;;;;;;;;4947454;28;20066;-58
2021/05/07 00:37:01;;;;;;;10.73;1.10;;;;;;;;;;4957137;28;20054;-55
2021/05/07 00:39:27;;;;;;;9.18;1.23;;;;;;;;;;4948195;28;20061;-57
2021/05/07 00:41:53;;;;;;;10.43;1.55;;;;;;;;;;4947508;28;20043;-57
2021/05/07 00:44:19;;;;;;;9.55;1.25;;;;;;;;;;4939151;28;20039;-57
2021/05/07 00:46:45;;;;;;;6.43;1.17;;;;;;;;;;4946767;28;20059;-58
2021/05/07 00:49:11;;;;;;;8.23;1.50;;;;;;;;;;4948192;28;20050;-59
2021/05/07 00:51:37;;;;;;;7.28;1.08;;;;;;;;;;4947838;28;20039;-55
2021/05/07 00:54:04;;;;;;;8.55;1.10;;;;;;;;;;4948487;28;20054;-57
2021/05/07 00:56:29;;;;;;;8.48;1.15;;;;;;;;;;4946840;28;20102;-58
2021/05/07 00:58:55;;;;;;;8.57;1.40;;;;;;;;;;4948644;28;20703;-57
2021/05/07 01:01:22;;;;;;;9.23;1.00;;;;;;;;;;4924548;28;20120;-57
2021/05/07 01:03:48;;;;;;;6.72;1.15;;;;;;;;;;4940572;28;20126;-57
2021/05/07 01:06:14;;;;;;;8.88;1.08;;;;;;;;;;4939496;28;20047;-57
2021/05/07 01:08:40;;;;;;;8.82;1.10;;;;;;;;;;4941157;28;20091;-57
2021/05/07 01:11:06;;;;;;;12.50;1.25;;;;;;;;;;4941821;28;20516;-58
2021/05/07 01:13:33;;;;;;;11.48;1.00;;;;;;;;;;4942334;28;20035;-57
2021/05/07 01:15:59;;;;;;;11.88;1.40;;;;;;;;;;4940627;28;20039;-58
2021/05/07 01:18:26;;;;;;;7.63;1.10;;;;;;;;;;4940451;28;20054;-56
2021/05/07 01:20:52;;;;;;;12.63;1.00;;;;;;;;;;4940044;28;20057;-56
2021/05/07 01:23:17;;;;;;;7.47;0.90;;;;;;;;;;4942007;28;20138;-57
2021/05/07 01:25:44;;;;;;;9.07;0.90;;;;;;;;;;4941350;28;20070;-57
2021/05/07 01:28:11;;;;;;;6.82;1.00;;;;;;;;;;4942622;28;20104;-58
2021/05/07 01:30:41;;;;;;;6.68;1.15;;;;;;;;;;4919449;28;20047;-58
2021/05/07 01:33:10;;;;;;;5.22;0.90;;;;;;;;;;4948675;28;20109;-57
2021/05/07 01:35:37;;;;;;;7.60;1.00;;;;;;;;;;4947146;28;20054;-58
2021/05/07 01:38:04;;;;;;;8.52;1.13;;;;;;;;;;4923884;28;20114;-57
2021/05/07 01:40:31;;;;;;;14.50;1.08;;;;;;;;;;4944927;28;20054;-58
2021/05/07 01:42:57;;;;;;;9.63;1.38;;;;;;;;;;4946947;28;20039;-58
2021/05/07 01:45:24;;;;;;;5.35;1.00;;;;;;;;;;4943966;28;20053;-58
2021/05/07 01:47:50;;;;;;;5.03;0.90;;;;;;;;;;4961624;28;20096;-57
2021/05/07 01:50:17;;;;;;;8.32;1.05;;;;;;;;;;4958689;28;20045;-56
2021/05/07 01:52:43;;;;;;;8.70;1.17;;;;;;;;;;4964238;28;20669;-58
2021/05/07 01:55:11;;;;;;;8.30;0.88;;;;;;;;;;4936087;28;20030;-57
2021/05/07 01:57:38;;;;;;;9.00;1.15;;;;;;;;;;4938566;28;20031;-58
2021/05/07 02:00:08;;;;;;;9.23;0.90;;;;;;;;;;4940726;28;20078;-58
2021/05/07 02:02:34;;;;;;;7.70;1.02;;;;;;;;;;4941312;28;20503;-57
2021/05/07 02:05:00;;;;;;;6.43;0.93;;;;;;;;;;4942079;28;20110;-57
2021/05/07 02:07:27;;;;;;;7.07;0.85;;;;;;;;;;4939656;28;20042;-58
2021/05/07 02:09:53;;;;;;;17.27;1.42;;;;;;;;;;4938959;28;20517;-56
2021/05/07 02:12:19;;;;;;;16.55;1.90;;;;;;;;;;4938597;28;20156;-57
2021/05/07 02:14:45;;;;;;;8.77;0.82;;;;;;;;;;4938212;28;20746;-57
2021/05/07 02:17:11;;;;;;;6.88;0.82;;;;;;;;;;4920590;28;20054;-56
2021/05/07 02:19:37;;;;;;;3.72;0.75;;;;;;;;;;4946410;28;20126;-57
2021/05/07 02:22:03;;;;;;;6.05;0.82;;;;;;;;;;4943729;28;20042;-57
2021/05/07 02:24:29;;;;;;;14.52;1.05;;;;;;;;;;4940855;28;20597;-58
2021/05/07 02:26:55;;;;;;;3.47;0.80;;;;;;;;;;4945352;28;20059;-59
2021/05/07 02:29:21;;;;;;;8.63;0.93;;;;;;;;;;4944833;28;22068;-57
2021/05/07 02:31:47;;;;;;;3.17;0.70;;;;;;;;;;4935353;28;20039;-58
2021/05/07 02:34:13;;;;;;;7.13;1.00;;;;;;;;;;4942891;28;20145;-58
2021/05/07 02:36:39;;;;;;;6.30;0.80;;;;;;;;;;4941270;28;20043;-58
2021/05/07 02:39:06;;;;;;;9.57;1.20;;;;;;;;;;4944250;28;20031;-58
2021/05/07 02:41:35;;;;;;;3.75;0.90;;;;;;;;;;4944205;28;20090;-59
2021/05/07 02:44:01;;;;;;;11.18;1.23;;;;;;;;;;4943062;28;20047;-57
2021/05/07 02:46:27;;;;;;;15.75;1.48;;;;;;;;;;4945451;28;20047;-59
2021/05/07 02:48:53;;;;;;;2.72;0.70;;;;;;;;;;4942489;28;20042;-60
2021/05/07 02:51:19;;;;;;;5.18;0.60;;;;;;;;;;4942213;28;20855;-58
2021/05/07 02:53:45;;;;;;;4.25;0.98;;;;;;;;;;4942051;28;20063;-58
2021/05/07 02:56:11;;;;;;;7.47;0.85;;;;;;;;;;4944161;28;20047;-58
2021/05/07 02:58:36;;;;;;;9.07;1.13;;;;;;;;;;4945054;28;20035;-59
2021/05/07 03:01:02;;;;;;;4.90;0.95;;;;;;;;;;4946013;28;20051;-58
2021/05/07 03:03:28;;;;;;;3.42;0.80;;;;;;;;;;4943333;28;20039;-57
2021/05/07 03:05:54;;;;;;;4.75;0.90;;;;;;;;;;4946491;28;20051;-58
2021/05/07 03:08:21;;;;;;;8.05;1.00;;;;;;;;;;4941827;28;20047;-58
2021/05/07 03:10:47;;;;;;;6.07;0.80;;;;;;;;;;4946089;28;20073;-57
2021/05/07 03:13:13;;;;;;;4.57;0.95;;;;;;;;;;4947708;28;20115;-58
2021/05/07 03:15:39;;;;;;;6.15;1.30;;;;;;;;;;4943883;28;20042;-58
2021/05/07 03:18:05;;;;;;;14.35;0.82;;;;;;;;;;4943992;28;20497;-59
2021/05/07 03:20:31;;;;;;;7.30;0.80;;;;;;;;;;4944313;28;20122;-59
2021/05/07 03:22:57;;;;;;;8.85;0.80;;;;;;;;;;4945392;28;20398;-58
2021/05/07 03:25:23;;;;;;;6.80;1.00;;;;;;;;;;4941677;28;20110;-55
2021/05/07 03:27:49;;;;;;;3.55;0.82;;;;;;;;;;4941245;28;20070;-58
2021/05/07 03:30:16;;;;;;;5.90;0.90;;;;;;;;;;4923164;28;20208;-57
2021/05/07 03:32:41;;;;;;;8.07;0.95;;;;;;;;;;4943775;28;20035;-57
2021/05/07 03:35:08;;;;;;;6.22;1.35;;;;;;;;;;4943600;28;20043;-57
2021/05/07 03:37:34;;;;;;;3.95;0.70;;;;;;;;;;4941953;28;20064;-57
2021/05/07 03:40:00;;;;;;;6.00;0.80;;;;;;;;;;4943232;28;20032;-57
2021/05/07 03:42:26;;;;;;;8.88;1.00;;;;;;;;;;4938510;28;20039;-57
2021/05/07 03:44:51;;;;;;;8.02;0.80;;;;;;;;;;4937845;28;20085;-57
2021/05/07 03:47:17;;;;;;;5.28;0.70;;;;;;;;;;4934811;28;20078;-57
2021/05/07 03:49:43;;;;;;;15.93;1.40;;;;;;;;;;4940887;28;20516;-57
2021/05/07 03:52:09;;;;;;;14.05;1.27;;;;;;;;;;4942155;28;20035;-57
2021/05/07 03:54:35;;;;;;;4.95;0.82;;;;;;;;;;4943058;28;20481;-56
2021/05/07 03:57:01;;;;;;;7.82;1.35;;;;;;;;;;4941921;28;21590;-57
2021/05/07 03:59:27;;;;;;;7.32;1.00;;;;;;;;;;4943344;28;20043;-58
2021/05/07 04:01:53;;;;;;;7.05;1.30;;;;;;;;;;4957598;28;20062;-57
2021/05/07 04:04:19;;;;;;;14.85;1.65;;;;;;;;;;4950634;28;20039;-57
2021/05/07 04:06:45;;;;;;;8.15;1.05;;;;;;;;;;4959813;28;20448;-57
2021/05/07 04:09:15;;;;;;;7.97;0.98;;;;;;;;;;4948142;28;20065;-58
2021/05/07 04:11:55;;;;;;;6.63;0.80;;;;;;;;;;4939089;28;20051;-57
2021/05/07 04:14:21;;;;;;;9.02;0.80;;;;;;;;;;4939995;28;20520;-57
2021/05/07 04:16:47;;;;;;;20.25;2.05;;;;;;;;;;4942206;28;20039;-58
2021/05/07 04:19:13;;;;;;;9.45;1.20;;;;;;;;;;4937474;28;20083;-58
2021/05/07 04:21:39;;;;;;;12.90;1.27;;;;;;;;;;4940954;28;20185;-56
2021/05/07 04:24:05;;;;;;;9.55;1.00;;;;;;;;;;4941078;28;20506;-57
2021/05/07 04:26:31;;;;;;;14.48;1.10;;;;;;;;;;4937990;28;20059;-57
2021/05/07 04:28:57;;;;;;;5.78;0.90;;;;;;;;;;4942957;28;20387;-57
2021/05/07 04:31:23;;;;;;;6.25;1.10;;;;;;;;;;4940479;28;20078;-57
2021/05/07 04:33:49;;;;;;;8.18;0.98;;;;;;;;;;4942604;28;20055;-58
2021/05/07 04:36:15;;;;;;;7.18;1.00;;;;;;;;;;4942313;28;20047;-58
2021/05/07 04:38:42;;;;;;;4.28;0.80;;;;;;;;;;4941209;28;20044;-58
2021/05/07 04:41:08;;;;;;;4.65;0.93;;;;;;;;;;4942170;28;20073;-57
2021/05/07 04:43:34;;;;;;;3.90;0.75;;;;;;;;;;4939820;28;20063;-57
2021/05/07 04:45:59;;;;;;;6.45;0.90;;;;;;;;;;4942088;28;20147;-58
2021/05/07 04:48:27;;;;;;;13.85;1.20;;;;;;;;;;4942210;28;20136;-57
2021/05/07 04:50:52;;;;;;;6.70;0.80;;;;;;;;;;4940970;28;20908;-57
2021/05/07 04:53:19;;;;;;;7.10;1.08;;;;;;;;;;4940489;28;20130;-57
2021/05/07 04:55:45;;;;;;;9.52;0.93;;;;;;;;;;4959064;28;20449;-57
2021/05/07 04:58:11;;;;;;;4.28;0.70;;;;;;;;;;4943660;28;20043;-57
2021/05/07 05:00:37;;;;;;;3.58;0.80;;;;;;;;;;4941321;28;20217;-56
2021/05/07 05:03:03;;;;;;;5.22;1.27;;;;;;;;;;4944568;28;20040;-56
2021/05/07 05:05:29;;;;;;;2.85;0.88;;;;;;;;;;4941797;28;20046;-56
2021/05/07 05:07:57;;;;;;;4.97;0.70;;;;;;;;;;4943035;28;20146;-58
2021/05/07 05:10:23;;;;;;;4.28;1.00;;;;;;;;;;4939172;28;20770;-57
2021/05/07 05:12:50;;;;;;;2.80;0.80;;;;;;;;;;4941708;28;20100;-57
2021/05/07 05:15:16;;;;;;;3.63;0.98;;;;;;;;;;4939185;28;20058;-56
2021/05/07 05:17:41;;;;;;;5.78;0.80;;;;;;;;;;4935958;28;20941;-57
2021/05/07 05:20:08;;;;;;;9.13;0.90;;;;;;;;;;4940252;28;20043;-57
2021/05/07 05:22:34;;;;;;;5.50;0.80;;;;;;;;;;4937759;28;20050;-57
2021/05/07 05:25:04;;;;;;;7.57;0.90;;;;;;;;;;4938050;28;20046;-57
2021/05/07 05:27:31;;;;;;;3.55;1.00;;;;;;;;;;4940164;28;20461;-56
2021/05/07 05:29:57;;;;;;;4.88;0.80;;;;;;;;;;4939018;28;20039;-57
2021/05/07 05:32:23;;;;;;;6.45;0.80;;;;;;;;;;4940282;28;20107;-57
2021/05/07 05:34:49;;;;;;;5.80;1.00;;;;;;;;;;4941106;28;20051;-53
2021/05/07 05:37:15;;;;;;;5.35;0.70;;;;;;;;;;4941960;28;20657;-57
2021/05/07 05:39:41;;;;;;;5.88;0.90;;;;;;;;;;4942423;28;20046;-57
2021/05/07 05:42:07;;;;;;;6.13;1.30;;;;;;;;;;4940410;28;20054;-56
2021/05/07 05:44:33;;;;;;;4.28;0.60;;;;;;;;;;4939279;28;20039;-55
2021/05/07 05:46:58;;;;;;;5.57;0.82;;;;;;;;;;4939154;28;20154;-57
2021/05/07 05:49:26;;;;;;;9.07;0.90;;;;;;;;;;4939485;28;20067;-56
2021/05/07 05:51:52;;;;;;;2.22;0.63;;;;;;;;;;4940130;28;20043;-58
2021/05/07 05:54:18;;;;;;;8.85;0.95;;;;;;;;;;4939026;28;20047;-56
2021/05/07 05:56:43;;;;;;;4.10;0.80;;;;;;;;;;4941344;28;22749;-57
2021/05/07 05:59:09;;;;;;;4.78;0.70;;;;;;;;;;4942211;28;20047;-57
2021/05/07 06:01:35;;;;;;;4.72;0.82;;;;;;;;;;4942044;28;20055;-58
2021/05/07 06:04:01;;;;;;;3.58;0.60;;;;;;;;;;4940062;28;20706;-56
2021/05/07 06:06:27;;;;;;;5.35;1.00;;;;;;;;;;4940064;28;20510;-57
2021/05/07 06:08:53;;;;;;;3.83;0.73;;;;;;;;;;4940301;28;20525;-56
2021/05/07 06:11:19;;;;;;;4.07;0.70;;;;;;;;;;4940802;28;20106;-57
2021/05/07 06:13:45;;;;;;;4.75;0.80;;;;;;;;;;4938237;28;20161;-55
2021/05/07 06:16:10;;;;;;;3.15;0.77;;;;;;;;;;4943680;28;20135;-57
2021/05/07 06:18:36;;;;;;;5.75;0.90;;;;;;;;;;4942438;28;20506;-57
2021/05/07 06:21:02;;;;;;;7.18;0.80;;;;;;;;;;4937554;28;20053;-56
2021/05/07 06:23:28;;;;;;;3.35;0.70;;;;;;;;;;4937949;28;20039;-56
2021/05/07 06:25:54;;;;;;;4.57;0.70;;;;;;;;;;4937449;28;20083;-57
2021/05/07 06:28:20;;;;;;;4.38;0.90;;;;;;;;;;4940615;28;20513;-57
2021/05/07 06:30:46;;;;;;;2.97;0.80;;;;;;;;;;4939286;28;20058;-57
2021/05/07 06:33:12;;;;;;;3.60;0.73;;;;;;;;;;4940137;28;20075;-56
2021/05/07 06:35:38;;;;;;;5.88;0.90;;;;;;;;;;4940399;28;21668;-57
2021/05/07 06:38:08;;;;;;;3.03;0.70;;;;;;;;;;4938396;28;20035;-57
2021/05/07 06:40:34;;;;;;;4.70;0.80;;;;;;;;;;4940315;28;20520;-55
2021/05/07 06:43:00;;;;;;;4.28;0.80;;;;;;;;;;4937132;28;20194;-56
2021/05/07 06:45:26;;;;;;;4.25;0.80;;;;;;;;;;4942912;28;20054;-56
2021/05/07 06:47:52;;;;;;;4.57;0.88;;;;;;;;;;4937966;28;20040;-56
2021/05/07 06:50:20;;;;;;;6.53;0.77;;;;;;;;;;4943214;28;20031;-56
2021/05/07 06:52:46;;;;;;;4.65;0.80;;;;;;;;;;4943976;28;20558;-56
2021/05/07 06:55:12;;;;;;;4.70;0.90;;;;;;;;;;4942730;28;20126;-56
2021/05/07 06:57:39;;;;;;;8.48;0.90;;;;;;;;;;4945187;28;20166;-57
2021/05/07 07:00:06;;;;;;;3.33;0.80;;;;;;;;;;4950352;28;20043;-57
2021/05/07 07:02:32;;;;;;;7.70;0.90;;;;;;;;;;4961006;28;20050;-53
2021/05/07 07:04:58;;;;;;;3.03;0.80;;;;;;;;;;4959519;28;20035;-57
2021/05/07 07:07:26;;;;;;;3.08;0.77;;;;;;;;;;4961300;28;20105;-57
2021/05/07 07:09:52;;;;;;;7.88;0.77;;;;;;;;;;4964649;28;20484;-57
2021/05/07 07:12:18;;;;;;;5.28;1.00;;;;;;;;;;4961082;28;20082;-57
2021/05/07 07:14:44;;;;;;;9.48;0.98;;;;;;;;;;4960977;28;20070;-57
2021/05/07 07:17:10;;;;;;;6.93;1.00;;;;;;;;;;4929511;28;20130;-57
2021/05/07 07:19:36;;;;;;;5.43;0.90;;;;;;;;;;4943980;28;20047;-57
2021/05/07 07:22:08;;;;;;;3.28;0.80;;;;;;;;;;4945087;28;20042;-55
2021/05/07 07:24:34;;;;;;;8.38;0.90;;;;;;;;;;4932251;28;21994;-57
2021/05/07 07:27:00;;;;;;;6.03;0.80;;;;;;;;;;4945257;28;20055;-57
2021/05/07 07:29:26;;;;;;;6.75;0.65;;;;;;;;;;4943386;28;20054;-57
2021/05/07 07:31:52;;;;;;;6.15;0.70;;;;;;;;;;4942037;28;20043;-57
2021/05/07 07:34:19;;;;;;;4.63;0.75;;;;;;;;;;4943889;28;20055;-57
2021/05/07 07:36:48;;;;;;;5.47;0.75;;;;;;;;;;4945615;28;20222;-57
2021/05/07 07:39:14;;;;;;;10.20;1.00;;;;;;;;;;4946060;28;20062;-56
2021/05/07 07:41:40;;;;;;;4.28;0.98;;;;;;;;;;4938039;28;20043;-57
2021/05/07 07:44:06;;;;;;;5.18;0.80;;;;;;;;;;4944695;28;20443;-57
2021/05/07 07:46:32;;;;;;;3.40;0.73;;;;;;;;;;4943748;28;20076;-56
2021/05/07 07:48:58;;;;;;;4.70;0.98;;;;;;;;;;4945011;28;21022;-57
2021/05/07 07:51:29;;;;;;;5.80;0.82;;;;;;;;;;4942094;28;20112;-57
2021/05/07 07:53:56;;;;;;;6.50;1.23;;;;;;;;;;4943401;28;20043;-56
2021/05/07 07:56:22;;;;;;;3.65;0.70;;;;;;;;;;4927101;28;20074;-57
2021/05/07 07:58:47;;;;;;;5.00;0.82;;;;;;;;;;4946768;28;20129;-56
2021/05/07 08:01:13;;;;;;;2.70;0.73;;;;;;;;;;4943338;28;20054;-57
2021/05/07 08:03:39;;;;;;;9.20;0.90;;;;;;;;;;4945808;28;20159;-57
2021/05/07 08:06:05;;;;;;;4.70;0.70;;;;;;;;;;4946155;28;20050;-56
2021/05/07 08:08:31;;;;;;;3.65;1.45;;;;;;;;;;4947566;28;20114;-57
2021/05/07 08:10:57;;;;;;;3.60;0.68;;;;;;;;;;4943269;28;20058;-57
2021/05/07 08:13:23;;;;;;;4.38;0.75;;;;;;;;;;4943279;28;20501;-57
2021/05/07 08:15:48;;;;;;;3.88;0.80;;;;;;;;;;4945772;28;20123;-56
2021/05/07 08:18:15;;;;;;;3.17;0.70;;;;;;;;;;4946496;28;20039;-56
2021/05/07 08:20:41;;;;;;;5.25;0.80;;;;;;;;;;4945676;28;20031;-56
2021/05/07 08:23:07;;;;;;;6.45;0.80;;;;;;;;;;4945065;28;20040;-55
2021/05/07 08:25:33;;;;;;;2.22;0.70;;;;;;;;;;4943201;28;20058;-57
2021/05/07 08:27:58;;;;;;;4.75;0.90;;;;;;;;;;4944466;28;20774;-57
2021/05/07 08:30:24;;;;;;;8.10;0.80;;;;;;;;;;4943713;28;20086;-57
2021/05/07 08:32:50;;;;;;;3.13;0.80;;;;;;;;;;4943702;28;20564;-57
2021/05/07 08:35:16;;;;;;;5.03;0.80;;;;;;;;;;4944683;28;20036;-56
2021/05/07 08:37:45;;;;;;;2.85;0.57;;;;;;;;;;4942861;28;20062;-56
2021/05/07 08:40:15;;;;;;;5.72;0.98;;;;;;;;;;4947655;28;20045;-57
2021/05/07 08:42:41;;;;;;;4.55;1.38;;;;;;;;;;4945471;28;22030;-57
2021/05/07 08:45:07;;;;;;;3.92;0.90;;;;;;;;;;4946087;28;20035;-56
2021/05/07 08:47:34;;;;;;;6.13;0.70;;;;;;;;;;4945675;28;20047;-57
2021/05/07 08:50:00;;;;;;;2.53;0.60;;;;;;;;;;4946789;28;20494;-56
2021/05/07 08:52:27;;;;;;;5.70;1.10;;;;;;;;;;4944117;28;20053;-55
2021/05/07 08:54:53;;;;;;;3.03;0.80;;;;;;;;;;4946828;28;20040;-56
2021/05/07 08:57:19;;;;;;;3.47;0.80;;;;;;;;;;4959162;28;20065;-56
2021/05/07 08:59:45;;;;;;;4.20;0.70;;;;;;;;;;4964539;28;20146;-56
2021/05/07 09:02:10;;;;;;;3.15;0.70;;;;;;;;;;4933444;28;20399;-56
2021/05/07 09:04:36;;;;;;;6.45;0.85;;;;;;;;;;4965531;28;20046;-56
2021/05/07 09:07:11;;;;;;;3.47;0.70;;;;;;;;;;4962607;28;20059;-57
2021/05/07 09:09:47;;;;;;;3.13;0.70;;;;;;;;;;4960041;28;20042;-57
2021/05/07 09:12:14;;;;;;;2.13;0.60;;;;;;;;;;4964220;28;20039;-57
2021/05/07 09:14:46;;;;;;;3.83;0.68;;;;;;;;;;4963877;28;20042;-57
2021/05/07 09:17:12;;;;;;;4.35;0.60;;;;;;;;;;4964291;28;20042;-57
2021/05/07 09:19:38;;;;;;;2.70;0.68;;;;;;;;;;4951815;28;20046;-57
2021/05/07 09:22:03;;;;;;;4.30;1.50;;;;;;;;;;4956673;28;20586;-55
2021/05/07 09:24:30;;;;;;;6.40;0.90;;;;;;;;;;4947657;28;20035;-58
2021/05/07 09:26:56;;;;;;;2.55;0.82;;;;;;;;;;4947409;28;20402;-57
2021/05/07 09:29:23;;;;;;;5.03;0.70;;;;;;;;;;4945602;28;20066;-56
2021/05/07 09:31:51;;;;;;;2.28;0.73;;;;;;;;;;4945250;28;20047;-55
2021/05/07 09:34:17;;;;;;;3.05;0.60;;;;;;;;;;4947907;28;20553;-56
2021/05/07 09:36:43;;;;;;;5.30;0.68;;;;;;;;;;4946692;28;20038;-56
2021/05/07 09:39:12;;;;;;;7.97;1.98;;;;;;;;;;4947240;28;20651;-54
2021/05/07 09:41:39;;;;;;;6.65;0.73;;;;;;;;;;4944884;28;20130;-57
2021/05/07 09:44:11;;;;;;;4.85;0.70;;;;;;;;;;4943745;28;20040;-57
2021/05/07 09:46:37;;;;;;;2.40;0.60;;;;;;;;;;4944341;28;20047;-56
2021/05/07 09:49:03;;;;;;;3.38;0.70;;;;;;;;;;4945688;28;20580;-53
2021/05/07 09:51:38;;;;;;;3.40;0.90;;;;;;;;;;4944565;28;20043;-56
2021/05/07 09:54:10;;;;;;;3.58;0.70;;;;;;;;;;4944420;28;20043;-55
2021/05/07 09:56:36;;;;;;;3.35;0.70;;;;;;;;;;4946411;28;20042;-56
2021/05/07 09:59:02;;;;;;;4.35;0.95;;;;;;;;;;4945925;28;20051;-56
2021/05/07 10:01:28;;;;;;;3.03;0.70;;;;;;;;;;4944483;28;20046;-56
2021/05/07 10:03:55;;;;;;;2.28;0.60;;;;;;;;;;4944503;28;20054;-54
2021/05/07 10:06:20;;;;;;;4.65;0.70;;;;;;;;;;4942040;28;20094;-55
2021/05/07 10:08:46;;;;;;;2.13;0.60;;;;;;;;;;4946131;28;20066;-57
2021/05/07 10:11:13;;;;;;;3.95;0.88;;;;;;;;;;4946886;28;20047;-56
2021/05/07 10:13:39;;;;;;;2.85;0.65;;;;;;;;;;4942691;28;20046;-56
2021/05/07 10:16:06;;;;;;;4.05;0.70;;;;;;;;;;4946423;28;20650;-57
2021/05/07 10:18:33;;;;;;;3.60;0.60;;;;;;;;;;4943614;28;20036;-56
2021/05/07 10:21:00;;;;;;;4.05;0.75;;;;;;;;;;4945976;28;20492;-56
2021/05/07 10:23:26;;;;;;;4.80;1.08;;;;;;;;;;4944338;28;20049;-55
2021/05/07 10:26:02;;;;;;;7.57;0.82;;;;;;;;;;4945716;28;20051;-55
2021/05/07 10:28:30;;;;;;;3.50;0.65;;;;;;;;;;4946548;28;20066;-57
2021/05/07 10:31:06;;;;;;;1.73;0.70;;;;;;;;;;4944687;28;20054;-56
2021/05/07 10:33:31;;;;;;;2.90;0.80;;;;;;;;;;4945276;28;20477;-54
2021/05/07 10:35:57;;;;;;;2.85;0.75;;;;;;;;;;4944370;28;20066;-56
2021/05/07 10:38:25;;;;;;;2.60;0.70;;;;;;;;;;4954776;28;20555;-57
2021/05/07 10:41:02;;;;;;;3.10;0.90;;;;;;;;;;4944949;28;20054;-58
2021/05/07 10:43:35;;;;;;;2.30;0.65;;;;;;;;;;4948496;28;20047;-57
2021/05/07 10:46:01;;;;;;;4.40;0.90;;;;;;;;;;4946688;28;20051;-58
2021/05/07 10:48:27;;;;;;;5.07;0.80;;;;;;;;;;4954572;28;20050;-56
2021/05/07 10:50:57;;;;;;;3.78;0.85;;;;;;;;;;4943849;28;20027;-56
2021/05/07 10:53:43;;;;;;;5.85;0.70;;;;;;;;;;4941443;28;20047;-57
2021/05/07 10:56:25;;;;;;;4.10;0.82;;;;;;;;;;4941899;28;20082;-57
2021/05/07 10:58:52;;;;;;;2.80;0.70;;;;;;;;;;4943168;28;20053;-57
2021/05/07 11:01:27;;;;;;;3.63;0.77;;;;;;;;;;4947399;28;20036;-57
2021/05/07 11:04:04;;;;;;;4.68;0.70;;;;;;;;;;4937419;28;20047;-57
2021/05/07 11:06:31;;;;;;;4.63;0.80;;;;;;;;;;4938910;28;20128;-57
2021/05/07 11:08:56;;;;;;;4.63;0.80;;;;;;;;;;4939281;28;20063;-54
2021/05/07 11:11:22;;;;;;;5.13;1.38;;;;;;;;;;4937855;28;20574;-56
2021/05/07 11:13:48;;;;;;;5.30;0.73;;;;;;;;;;4939822;28;20054;-56
2021/05/07 11:16:14;;;;;;;2.83;0.80;;;;;;;;;;4938880;28;20118;-56
2021/05/07 11:18:46;;;;;;;4.03;0.82;;;;;;;;;;4938255;28;20042;-53
2021/05/07 11:21:12;;;;;;;3.58;0.70;;;;;;;;;;4940957;28;20106;-55
2021/05/07 11:23:38;;;;;;;5.60;0.80;;;;;;;;;;4937368;28;20062;-55
2021/05/07 11:26:05;;;;;;;4.20;0.88;;;;;;;;;;4939709;28;20051;-55
2021/05/07 11:28:38;;;;;;;4.18;1.00;;;;;;;;;;4938124;28;20051;-56
2021/05/07 11:31:04;;;;;;;10.80;1.00;;;;;;;;;;4937357;28;20030;-55
2021/05/07 11:33:30;;;;;;;5.97;0.90;;;;;;;;;;4937496;28;20062;-55
2021/05/07 11:36:06;;;;;;;3.78;0.85;;;;;;;;;;4938098;28;20031;-56
2021/05/07 11:38:34;;;;;;;2.47;0.80;;;;;;;;;;4940732;28;20062;-55
2021/05/07 11:41:00;;;;;;;5.70;0.80;;;;;;;;;;4939154;28;20046;-55
2021/05/07 11:43:30;;;;;;;4.35;1.30;;;;;;;;;;4939774;28;20038;-56
2021/05/07 11:46:05;;;;;;;4.30;1.00;;;;;;;;;;4939861;28;20051;-56
2021/05/07 11:48:31;;;;;;;2.50;0.70;;;;;;;;;;4939916;28;20064;-55
2021/05/07 11:50:57;;;;;;;4.88;1.00;;;;;;;;;;4940973;28;20043;-54
2021/05/07 11:53:23;;;;;;;2.85;0.80;;;;;;;;;;4941818;28;20400;-56
2021/05/07 11:55:49;;;;;;;3.05;0.80;;;;;;;;;;4938797;28;20121;-56
2021/05/07 11:58:15;;;;;;;4.57;1.20;;;;;;;;;;4942101;28;21017;-55
2021/05/07 12:00:42;;;;;;;3.58;0.80;;;;;;;;;;4940670;28;20047;-56
2021/05/07 12:03:09;;;;;;;2.95;0.80;;;;;;;;;;4953314;28;20561;-56
2021/05/07 12:05:36;;;;;;;4.30;0.90;;;;;;;;;;4938492;28;20458;-56
2021/05/07 12:08:02;;;;;;;3.67;0.88;;;;;;;;;;4937469;28;20528;-57
2021/05/07 12:10:28;;;;;;;5.63;0.90;;;;;;;;;;4939311;28;20039;-57
2021/05/07 12:12:57;;;;;;;3.85;0.80;;;;;;;;;;4943180;28;20053;-57
2021/05/07 12:15:23;;;;;;;7.07;0.98;;;;;;;;;;4939329;28;20039;-57
2021/05/07 12:17:50;;;;;;;5.20;0.80;;;;;;;;;;4944183;28;20170;-55
2021/05/07 12:20:20;;;;;;;3.17;0.98;;;;;;;;;;4941662;28;20049;-56
2021/05/07 12:22:47;;;;;;;7.03;1.50;;;;;;;;;;4963376;28;20044;-55
2021/05/07 12:25:15;;;;;;;5.43;1.70;;;;;;;;;;4965323;28;20071;-59
2021/05/07 12:27:41;;;;;;;5.55;1.40;;;;;;;;;;4962374;28;20037;-60
2021/05/07 12:30:17;;;;;;;3.42;0.85;;;;;;;;;;4961580;28;20042;-57
2021/05/07 12:32:42;;;;;;;4.35;1.10;;;;;;;;;;4964921;28;20050;-57
2021/05/07 12:35:08;;;;;;;4.45;0.95;;;;;;;;;;4961759;28;20038;-56
2021/05/07 12:37:38;;;;;;;5.97;1.00;;;;;;;;;;4961605;28;20046;-57
2021/05/07 12:40:05;;;;;;;4.65;0.90;;;;;;;;;;4962566;28;20504;-57
2021/05/07 12:42:30;;;;;;;4.65;0.95;;;;;;;;;;4962486;28;20042;-57
2021/05/07 12:44:56;;;;;;;2.53;0.82;;;;;;;;;;4961554;28;20085;-57
2021/05/07 12:47:22;;;;;;;4.18;0.90;;;;;;;;;;4961613;28;20426;-56
2021/05/07 12:49:48;;;;;;;4.47;0.90;;;;;;;;;;4953813;28;20053;-55
2021/05/07 12:52:14;;;;;;;5.55;1.02;;;;;;;;;;4961585;28;20052;-56
2021/05/07 12:54:39;;;;;;;4.10;0.90;;;;;;;;;;4960926;28;20446;-56
2021/05/07 12:57:05;;;;;;;4.70;0.90;;;;;;;;;;4961980;28;20058;-57
2021/05/07 12:59:31;;;;;;;5.07;1.77;;;;;;;;;;4963342;28;20031;-57
2021/05/07 13:01:57;;;;;;;5.63;1.40;;;;;;;;;;4968185;28;20043;-57
2021/05/07 13:04:23;;;;;;;4.25;0.85;;;;;;;;;;4962566;28;20066;-57
2021/05/07 13:06:48;;;;;;;9.82;0.98;;;;;;;;;;4968324;28;20481;-58
2021/05/07 13:09:14;;;;;;;3.45;1.00;;;;;;;;;;4949210;28;20146;-58
2021/05/07 13:11:40;;;;;;;3.95;1.20;;;;;;;;;;4962662;28;20856;-57
2021/05/07 13:14:10;;;;;;;4.28;1.08;;;;;;;;;;4964774;28;20043;-58
2021/05/07 13:16:36;;;;;;;6.40;0.90;;;;;;;;;;4963977;28;20054;-57
2021/05/07 13:19:02;;;;;;;3.97;0.90;;;;;;;;;;4963141;28;20073;-58
2021/05/07 13:21:29;;;;;;;6.95;1.15;;;;;;;;;;4932048;28;20047;-58
2021/05/07 13:23:55;;;;;;;3.90;1.27;;;;;;;;;;4964206;28;20086;-58
2021/05/07 13:26:21;;;;;;;4.97;0.88;;;;;;;;;;4955260;28;20054;-59
2021/05/07 13:28:48;;;;;;;6.32;1.08;;;;;;;;;;4948280;28;20816;-58
2021/05/07 13:31:14;;;;;;;4.07;0.88;;;;;;;;;;4949976;28;20055;-54
2021/05/07 13:33:40;;;;;;;3.63;1.00;;;;;;;;;;4944751;28;20051;-57
2021/05/07 13:36:06;;;;;;;4.88;1.00;;;;;;;;;;4943935;28;20066;-57
2021/05/07 13:38:32;;;;;;;3.40;0.80;;;;;;;;;;4943191;28;20668;-58
2021/05/07 13:40:58;;;;;;;3.60;0.80;;;;;;;;;;4945466;28;20524;-58
2021/05/07 13:43:24;;;;;;;3.80;0.85;;;;;;;;;;4944156;28;20402;-55
2021/05/07 13:45:50;;;;;;;7.18;1.00;;;;;;;;;;4941200;28;20047;-57
2021/05/07 13:48:16;;;;;;;5.25;1.08;;;;;;;;;;4946860;28;20071;-58
2021/05/07 13:50:41;;;;;;;8.38;2.63;;;;;;;;;;4943679;28;20066;-56
2021/05/07 13:53:07;;;;;;;5.22;1.08;;;;;;;;;;4942518;28;20039;-55
2021/05/07 13:55:33;;;;;;;5.13;0.90;;;;;;;;;;4941128;28;20422;-55
2021/05/07 13:57:59;;;;;;;7.18;1.20;;;;;;;;;;4939333;28;20054;-55
2021/05/07 14:00:25;;;;;;;6.15;1.17;;;;;;;;;;4940309;28;20071;-55
2021/05/07 14:02:51;;;;;;;7.30;1.05;;;;;;;;;;4934104;28;20486;-55
2021/05/07 14:05:18;;;;;;;6.15;0.90;;;;;;;;;;4954038;28;20048;-55
2021/05/07 14:07:44;;;;;;;4.80;1.00;;;;;;;;;;4939158;28;20051;-55
2021/05/07 14:10:10;;;;;;;3.53;0.93;;;;;;;;;;4939842;28;20051;-55
2021/05/07 14:12:36;;;;;;;5.93;0.90;;;;;;;;;;4931334;28;20044;-56
2021/05/07 14:15:02;;;;;;;4.30;1.67;;;;;;;;;;4932781;28;20044;-54
2021/05/07 14:17:28;;;;;;;4.22;0.93;;;;;;;;;;4931894;28;20047;-55
2021/05/07 14:19:54;;;;;;;4.55;1.02;;;;;;;;;;4933231;28;20184;-53
2021/05/07 14:22:20;;;;;;;4.53;1.10;;;;;;;;;;4933621;28;20327;-56
2021/05/07 14:24:46;;;;;;;6.10;1.08;;;;;;;;;;4933184;28;20101;-55
2021/05/07 14:27:11;;;;;;;3.63;0.90;;;;;;;;;;4932223;28;20082;-56
2021/05/07 14:29:37;;;;;;;5.30;1.02;;;;;;;;;;4933015;28;20048;-55
2021/05/07 14:32:03;;;;;;;7.15;1.30;;;;;;;;;;4932556;28;20039;-54
2021/05/07 14:34:29;;;;;;;8.52;1.30;;;;;;;;;;4931780;28;20165;-56
2021/05/07 14:36:55;;;;;;;4.60;0.98;;;;;;;;;;4931914;28;20102;-55
2021/05/07 14:39:21;;;;;;;6.65;1.10;;;;;;;;;;4932444;28;20145;-55